Weather History for Sallisaw, OK

Change the Weather History Date:

Wednesday, January 2, 2013

  Actual Average Record
Temperature  
Mean Temperature 30 °F -  
Max Temperature 35 °F 46 °F 75 °F (2004)
Min Temperature 23 °F 26 °F 4 °F (1979)
Degree Days  
Heating Degree Days 36    
Moisture  
Dew Point 26 °F    
Average Humidity 81    
Maximum Humidity 100    
Minimum Humidity 56    
Precipitation  
Precipitation 0.00 in - - ()
Sea Level Pressure  
Sea Level Pressure 30.28 in    
Wind  
Wind Speed 4 mph (WNW)    
Max Wind Speed 9 mph    
Max Gust Speed -    
Visibility 9 miles    
Events      
Averages and records for this station are not official NWS values.
T = Trace of Precipitation, MM = Missing Value Source: NWS Daily Summary

Daily Weather History Graph

Daily Weather History Graph

Search for Another Location

Airport:

Trip Planner

Search our weather history database for the weather conditions in past years. The results will help you decide how hot, cold, wet, or windy it might be!

Date:

Astronomy

Jan. 02, 2013 Rise Set
Actual Time 7:28 AM CST 5:18 PM CST
Civil Twilight 7:00 AM CST 5:46 PM CST
Nautical Twilight 6:28 AM CST 6:18 PM CST
Astronomical Twilight 5:57 AM CST 6:49 PM CST
Moon 10:39 PM CST (1/2) 10:22 AM CST (1/2)
Length of Visible Light 10h 46m
Length of Day
9h 49m
Waning Gibbous, 75% of the Moon is Illuminated
Jan 2
Waning Gibbous
Jan 4
Last Quarter
Jan 11
New
Jan 18
First Quarter
Jan 26
Full

Hourly Weather History & Observations

Time (CST) Temp. Windchill Dew Point Humidity Pressure Visibility Wind Dir Wind Speed Gust Speed Precip Events Conditions
12:15 AM 32.0 °F - 28.4 °F 87% 30.27 in 10.0 mi Calm Calm - N/A   Overcast
12:35 AM 32.0 °F 26.4 °F 30.2 °F 93% 30.27 in 7.0 mi NW 5.8 mph - N/A   Overcast
12:55 AM 32.0 °F 26.4 °F 28.4 °F 87% 30.28 in 10.0 mi NW 5.8 mph - N/A   Overcast
1:15 AM 32.0 °F 25.6 °F 28.4 °F 87% 30.29 in 10.0 mi WNW 6.9 mph - N/A   Overcast
1:35 AM 32.0 °F 24.2 °F 28.4 °F 87% 30.28 in 10.0 mi WNW 9.2 mph - N/A   Overcast
2:15 AM 32.0 °F 26.4 °F 28.4 °F 87% 30.28 in 10.0 mi NNW 5.8 mph - N/A   Overcast
2:35 AM 32.0 °F 25.6 °F 28.4 °F 87% 30.29 in 10.0 mi NNW 6.9 mph - N/A   Overcast
2:55 AM 32.0 °F 25.6 °F 28.4 °F 87% 30.29 in 10.0 mi NNW 6.9 mph - N/A   Overcast
3:15 AM 32.0 °F 27.5 °F 28.4 °F 87% 30.30 in 10.0 mi NNW 4.6 mph - N/A   Overcast
3:35 AM 32.0 °F 24.8 °F 28.4 °F 87% 30.30 in 10.0 mi NW 8.1 mph - N/A   Overcast
3:55 AM 32.0 °F 25.6 °F 28.4 °F 87% 30.29 in 10.0 mi WNW 6.9 mph - N/A   Overcast
4:15 AM 32.0 °F 25.6 °F 28.4 °F 87% 30.29 in 10.0 mi NW 6.9 mph - N/A   Overcast
4:35 AM 30.2 °F 23.4 °F 28.4 °F 93% 30.29 in 10.0 mi WNW 6.9 mph - N/A   Overcast
5:15 AM 30.2 °F 26.7 °F 26.6 °F 86% 30.29 in 10.0 mi North 3.5 mph - N/A   Overcast
5:35 AM 30.2 °F 25.4 °F 26.6 °F 86% 30.29 in 10.0 mi WNW 4.6 mph - N/A   Overcast
5:55 AM 30.2 °F 26.7 °F 26.6 °F 86% 30.29 in 10.0 mi NNW 3.5 mph - N/A   Overcast
6:15 AM 30.2 °F 24.3 °F 26.6 °F 86% 30.29 in 10.0 mi WNW 5.8 mph - N/A   Overcast
6:35 AM 30.2 °F 23.4 °F 26.6 °F 86% 30.29 in 10.0 mi WNW 6.9 mph - N/A   Overcast
7:15 AM 30.2 °F 25.4 °F 26.6 °F 86% 30.29 in 10.0 mi WNW 4.6 mph - N/A   Overcast
7:35 AM 30.2 °F 24.3 °F 26.6 °F 86% 30.30 in 10.0 mi West 5.8 mph - N/A   Overcast
7:55 AM 28.4 °F 23.3 °F 26.6 °F 93% 30.30 in 10.0 mi West 4.6 mph - N/A   Overcast
8:35 AM 28.4 °F - 24.8 °F 86% 30.30 in 10.0 mi Calm Calm - N/A   Overcast
8:55 AM 28.4 °F - 24.8 °F 86% 30.30 in 10.0 mi Calm Calm - N/A   Overcast
9:15 AM 28.4 °F 24.6 °F 24.8 °F 86% 30.31 in 10.0 mi West 3.5 mph - N/A   Mostly Cloudy
9:35 AM 30.2 °F 25.4 °F 24.8 °F 80% 30.31 in 10.0 mi WNW 4.6 mph - N/A   Mostly Cloudy
9:55 AM 30.2 °F 26.7 °F 24.8 °F 80% 30.33 in 10.0 mi West 3.5 mph - N/A   Overcast
10:15 AM 30.2 °F 22.6 °F 26.6 °F 86% 30.33 in 7.0 mi West 8.1 mph - N/A   Overcast
10:35 AM 30.2 °F 23.4 °F 24.8 °F 80% 30.33 in 7.0 mi WSW 6.9 mph - N/A   Overcast
10:55 AM 30.2 °F 24.3 °F 26.6 °F 86% 30.33 in 7.0 mi WNW 5.8 mph - N/A   Overcast
11:15 AM 30.2 °F 23.4 °F 24.8 °F 80% 30.32 in 10.0 mi NW 6.9 mph - N/A   Scattered Clouds
11:35 AM 32.0 °F 25.6 °F 24.8 °F 75% 30.31 in 10.0 mi WNW 6.9 mph - N/A   Clear
11:55 AM 32.0 °F 28.7 °F 24.8 °F 75% 30.30 in 10.0 mi WNW 3.5 mph - N/A   Clear
12:15 PM 32.0 °F 28.7 °F 24.8 °F 75% 30.28 in 10.0 mi West 3.5 mph - N/A   Clear
12:35 PM 32.0 °F 25.6 °F 23.0 °F 69% 30.28 in 10.0 mi WNW 6.9 mph - N/A   Clear
1:15 PM 33.8 °F 27.7 °F 23.0 °F 65% 30.26 in 10.0 mi West 6.9 mph - N/A   Clear
1:35 PM 33.8 °F 27.7 °F 23.0 °F 65% 30.25 in 10.0 mi West 6.9 mph - N/A   Clear
1:55 PM 35.6 °F 29.2 °F 23.0 °F 60% 30.24 in 10.0 mi WSW 8.1 mph - N/A   Clear
2:15 PM 35.6 °F 31.7 °F 23.0 °F 60% 30.24 in 10.0 mi West 4.6 mph - N/A   Clear
2:35 PM 35.6 °F 29.9 °F 21.2 °F 56% 30.24 in 10.0 mi WSW 6.9 mph - N/A   Clear
2:55 PM 35.6 °F 29.9 °F 23.0 °F 60% 30.24 in 10.0 mi WSW 6.9 mph - N/A   Clear
3:15 PM 35.6 °F 29.9 °F 23.0 °F 60% 30.24 in 10.0 mi WSW 6.9 mph - N/A   Clear
3:35 PM 35.6 °F 32.8 °F 23.0 °F 60% 30.24 in 10.0 mi SW 3.5 mph - N/A   Clear
3:55 PM 35.6 °F - 23.0 °F 60% 30.24 in 10.0 mi Calm Calm - N/A   Clear
4:15 PM 35.6 °F 32.8 °F 23.0 °F 60% 30.25 in 10.0 mi West 3.5 mph - N/A   Clear
4:35 PM 35.6 °F 31.7 °F 23.0 °F 60% 30.25 in 10.0 mi West 4.6 mph - N/A   Clear
4:55 PM 35.6 °F - 23.0 °F 60% 30.24 in 10.0 mi Calm Calm - N/A   Clear
5:15 PM 33.8 °F - 23.0 °F 65% 30.25 in 10.0 mi Calm Calm - N/A   Clear
5:35 PM 33.8 °F - 24.8 °F 70% 30.25 in 10.0 mi Calm Calm - N/A   Clear
5:55 PM 32.0 °F - 23.0 °F 69% 30.25 in 10.0 mi Calm Calm - N/A   Clear
6:15 PM 32.0 °F - 24.8 °F 75% 30.26 in 10.0 mi Calm Calm - N/A   Clear
6:35 PM 32.0 °F - 24.8 °F 75% 30.27 in 10.0 mi Calm Calm - N/A   Clear
6:55 PM 30.2 °F - 26.6 °F 86% 30.28 in 10.0 mi Calm Calm - N/A   Clear
7:15 PM 30.2 °F - 26.6 °F 86% 30.28 in 10.0 mi Calm Calm - N/A   Clear
7:35 PM 28.4 °F - 26.6 °F 93% 30.28 in 10.0 mi Calm Calm - N/A   Clear
7:55 PM 28.4 °F - 26.6 °F 93% 30.28 in 10.0 mi Calm Calm - N/A   Clear
8:35 PM 26.6 °F - 26.6 °F 100% 30.29 in 7.0 mi Calm Calm - N/A   Clear
8:55 PM 26.6 °F - 26.6 °F 100% 30.30 in 7.0 mi Calm Calm - N/A   Clear
9:15 PM 26.6 °F - 26.6 °F 100% 30.29 in 7.0 mi Calm Calm - N/A   Clear
9:55 PM 26.6 °F - 24.8 °F 93% 30.30 in 7.0 mi Calm Calm - N/A   Clear
10:15 PM 26.6 °F - 24.8 °F 93% 30.30 in 5.0 mi Calm Calm - N/A   Clear
10:35 PM 26.6 °F - 24.8 °F 93% 30.30 in 5.0 mi Calm Calm - N/A   Clear
10:55 PM 26.6 °F - 26.6 °F 100% 30.30 in 5.0 mi Calm Calm - N/A   Clear
11:15 PM 24.8 °F - 23.0 °F 93% 30.31 in 5.0 mi Calm Calm - N/A   Clear
11:35 PM 24.8 °F - 24.8 °F 100% 30.31 in 5.0 mi Calm Calm - N/A   Clear
11:55 PM 23.0 °F - 23.0 °F 100% 30.31 in 5.0 mi Calm Calm - N/A   Clear